Time;durP1;ratioP1;P1;durP2;ratioP2;P2;SDS_P1;SDS_P2;PMS_P1;PMS_P2;Temp;Humidity;BMP_temperature;BMP_pressure;BME280_temperature;BME280_humidity;BME280_pressure;Samples;Min_cycle;Max_cycle;Signal;HPM_P1;HPM_P2
2021/05/25 00:01:19;;;;;;;485.97;395.47;;;;;;;12.17;89.31;98353.25;5027781;28;20033;-62
2021/05/25 00:03:44;;;;;;;481.27;382.17;;;;;;;11.98;90.56;98352.09;5026150;28;20048;-62
2021/05/25 00:06:10;;;;;;;486.83;392.67;;;;;;;11.89;91.46;98358.34;5026060;28;20037;-62
2021/05/25 00:08:35;;;;;;;492.80;398.17;;;;;;;11.86;91.75;98368.72;5026413;28;20052;-62
2021/05/25 00:11:01;;;;;;;485.57;383.10;;;;;;;11.84;91.63;98367.88;5027734;28;20029;-62
2021/05/25 00:13:26;;;;;;;489.60;393.60;;;;;;;11.87;92.07;98377.25;5028086;28;20038;-62
2021/05/25 00:15:54;;;;;;;486.63;388.20;;;;;;;11.79;92.11;98390.31;5026965;28;20290;-62
2021/05/25 00:18:21;;;;;;;487.37;380.47;;;;;;;11.90;91.75;98397.72;5027718;28;20029;-62
2021/05/25 00:20:48;;;;;;;476.10;360.93;;;;;;;11.84;91.21;98393.56;5027464;28;20090;-62
2021/05/25 00:23:14;;;;;;;481.37;372.40;;;;;;;11.94;91.53;98413.88;5025736;28;20104;-62
2021/05/25 00:25:40;;;;;;;484.97;378.77;;;;;;;11.90;91.32;98401.13;5026591;28;20109;-62
2021/05/25 00:28:05;;;;;;;482.60;371.73;;;;;;;11.90;91.77;98402.84;5027027;28;20378;-62
2021/05/25 00:30:31;;;;;;;477.23;368.33;;;;;;;11.90;91.86;98400.28;5028704;28;20037;-62
2021/05/25 00:32:56;;;;;;;482.67;366.97;;;;;;;11.83;92.07;98386.78;5031884;28;20042;-62
2021/05/25 00:35:22;;;;;;;481.30;374.60;;;;;;;11.90;92.22;98388.28;5031032;28;20409;-62
2021/05/25 00:37:47;;;;;;;483.13;368.67;;;;;;;11.91;92.57;98389.13;5030134;28;20361;-62
2021/05/25 00:40:14;;;;;;;479.37;366.23;;;;;;;11.90;92.76;98395.16;5030885;28;20091;-62
2021/05/25 00:42:43;;;;;;;485.40;380.53;;;;;;;11.98;92.28;98397.50;5030386;28;20116;-62
2021/05/25 00:45:09;;;;;;;484.13;378.93;;;;;;;11.92;92.69;98390.81;5031914;28;20056;-62
2021/05/25 00:47:36;;;;;;;482.30;376.27;;;;;;;11.98;92.61;98392.34;5030509;28;20322;-63
2021/05/25 00:50:11;;;;;;;486.93;392.23;;;;;;;11.97;92.70;98388.94;5032404;28;20080;-62
2021/05/25 00:52:52;;;;;;;485.27;383.65;;;;;;;11.94;92.84;98383.91;5032721;28;20038;-62
2021/05/25 00:55:21;;;;;;;485.93;379.77;;;;;;;11.98;92.76;98387.22;5033041;28;20056;-62
2021/05/25 00:57:49;;;;;;;484.53;381.27;;;;;;;11.92;93.16;98382.28;5031182;28;20061;-61
2021/05/25 01:00:17;;;;;;;482.40;383.10;;;;;;;11.93;93.33;98382.19;5027156;28;20302;-61
2021/05/25 01:02:43;;;;;;;483.57;380.43;;;;;;;11.96;92.68;98365.88;5030119;28;20021;-61
2021/05/25 01:05:11;;;;;;;479.27;374.97;;;;;;;11.93;92.69;98377.06;5030296;28;20065;-61
2021/05/25 01:07:37;;;;;;;485.13;378.73;;;;;;;11.90;92.59;98370.31;5032687;28;20124;-61
2021/05/25 01:10:05;;;;;;;481.27;379.23;;;;;;;11.96;92.80;98368.44;5033546;28;20114;-61
2021/05/25 01:12:33;;;;;;;479.93;376.43;;;;;;;11.96;92.90;98355.59;5022936;28;20063;-61
2021/05/25 01:15:04;;;;;;;483.30;380.90;;;;;;;11.95;93.16;98354.75;5032022;28;20064;-61
2021/05/25 01:17:30;;;;;;;487.27;387.30;;;;;;;11.96;93.20;98365.88;5030998;28;20045;-61
2021/05/25 01:19:58;;;;;;;480.50;375.60;;;;;;;11.99;92.89;98363.22;5029957;28;20334;-61
2021/05/25 01:22:23;;;;;;;485.93;385.30;;;;;;;11.96;93.01;98355.59;5029391;28;20044;-61
2021/05/25 01:24:49;;;;;;;483.07;383.80;;;;;;;11.95;93.07;98353.91;5011522;28;20033;-62
2021/05/25 01:27:14;;;;;;;481.50;379.23;;;;;;;11.95;93.37;98353.91;5030251;28;20406;-62
2021/05/25 01:29:40;;;;;;;481.50;383.60;;;;;;;11.94;93.61;98335.09;5030564;28;20285;-62
2021/05/25 01:32:06;;;;;;;483.00;381.53;;;;;;;12.01;93.28;98353.75;5018189;28;20290;-63
2021/05/25 01:34:31;;;;;;;481.20;381.50;;;;;;;12.01;93.31;98356.31;5031864;28;20043;-63
2021/05/25 01:36:57;;;;;;;484.90;385.70;;;;;;;12.00;93.30;98362.34;5030540;28;20408;-63
2021/05/25 01:39:22;;;;;;;482.80;380.60;;;;;;;11.99;93.56;98363.22;5032162;28;20106;-61
2021/05/25 01:41:54;;;;;;;484.47;385.97;;;;;;;12.01;92.68;98364.03;5029181;28;20034;-61
2021/05/25 01:44:20;;;;;;;478.87;377.47;;;;;;;11.98;93.46;98364.09;5027761;28;20038;-62
2021/05/25 01:46:46;;;;;;;482.17;381.43;;;;;;;11.94;93.09;98365.06;5028934;28;20440;-62
2021/05/25 01:49:13;;;;;;;488.80;394.67;;;;;;;11.96;92.86;98365.88;5026541;28;20199;-62
2021/05/25 01:51:44;;;;;;;480.57;376.50;;;;;;;11.94;93.17;98360.78;5031596;28;20029;-62
2021/05/25 01:54:10;;;;;;;486.67;388.70;;;;;;;11.87;93.02;98362.69;5016387;28;20048;-61
2021/05/25 01:56:35;;;;;;;479.83;379.53;;;;;;;11.87;93.25;98372.13;5028834;28;20092;-62
2021/05/25 01:59:00;;;;;;;484.33;383.20;;;;;;;11.87;93.29;98377.25;5029973;28;20025;-62
2021/05/25 02:01:26;;;;;;;479.07;375.57;;;;;;;11.87;93.33;98372.13;5030229;28;20152;-61
2021/05/25 02:03:51;;;;;;;483.27;387.93;;;;;;;11.92;92.93;98385.69;5021882;28;20288;-61
2021/05/25 02:06:17;;;;;;;478.93;379.90;;;;;;;11.92;92.77;98387.41;5028731;28;20025;-61
2021/05/25 02:08:42;;;;;;;481.40;383.57;;;;;;;11.89;92.93;98385.75;5032881;28;20033;-62
2021/05/25 02:11:08;;;;;;;478.13;376.90;;;;;;;11.88;93.11;98382.34;5031524;28;20052;-61
2021/05/25 02:13:36;;;;;;;477.27;371.77;;;;;;;11.96;92.83;98391.56;5027584;28;20033;-63
2021/05/25 02:16:08;;;;;;;479.37;380.23;;;;;;;11.98;92.96;98389.78;5031253;28;20036;-62
2021/05/25 02:18:37;;;;;;;482.60;385.50;;;;;;;12.00;93.20;98395.72;5027957;28;20037;-62
2021/05/25 02:21:06;;;;;;;478.10;376.10;;;;;;;11.97;93.16;98401.78;5031709;28;20342;-63
2021/05/25 02:23:32;;;;;;;481.43;380.13;;;;;;;11.97;93.29;98404.34;5014114;28;20030;-62
2021/05/25 02:25:57;;;;;;;478.00;378.87;;;;;;;11.99;92.86;98406.88;5031800;28;20112;-62
2021/05/25 02:28:24;;;;;;;480.37;380.57;;;;;;;11.85;93.25;98415.81;5020795;28;20029;-62
2021/05/25 02:30:49;;;;;;;477.83;379.73;;;;;;;11.90;92.67;98416.53;5028380;28;20025;-61
2021/05/25 02:33:18;;;;;;;479.07;376.40;;;;;;;11.90;93.00;98411.41;5029332;28;20073;-62
2021/05/25 02:35:45;;;;;;;479.47;381.83;;;;;;;11.88;93.03;98413.16;5031375;28;20030;-61
2021/05/25 02:38:13;;;;;;;475.43;373.67;;;;;;;11.90;92.82;98411.41;5032227;28;20029;-61
2021/05/25 02:40:39;;;;;;;477.07;373.33;;;;;;;11.88;93.09;98410.59;5028661;28;20033;-62
2021/05/25 02:43:05;;;;;;;479.67;373.70;;;;;;;11.86;92.58;98407.22;5019133;28;20029;-60
2021/05/25 02:45:32;;;;;;;481.30;381.43;;;;;;;11.89;93.07;98414.00;5028275;28;20032;-61
2021/05/25 02:47:57;;;;;;;477.73;377.13;;;;;;;11.87;93.31;98415.78;5029772;28;20099;-62
2021/05/25 02:50:24;;;;;;;478.57;381.77;;;;;;;11.93;93.16;98422.47;5029993;28;20041;-62
2021/05/25 02:52:52;;;;;;;476.77;375.77;;;;;;;11.95;93.09;98413.84;5026821;28;20029;-62
2021/05/25 02:55:31;;;;;;;480.30;380.80;;;;;;;11.97;92.99;98414.63;5026348;28;20053;-62
2021/05/25 02:57:57;;;;;;;475.73;373.23;;;;;;;11.96;93.18;98418.09;5028626;28;20037;-62
2021/05/25 03:00:26;;;;;;;479.83;386.97;;;;;;;11.97;92.84;98421.50;5028691;28;20025;-62
2021/05/25 03:02:53;;;;;;;480.47;380.33;;;;;;;11.95;92.89;98426.69;5028200;28;20144;-62
2021/05/25 03:05:19;;;;;;;479.63;380.90;;;;;;;11.94;93.04;98431.84;5031312;28;20393;-62
2021/05/25 03:07:45;;;;;;;481.10;382.53;;;;;;;11.89;92.83;98435.41;5028951;28;20041;-62
2021/05/25 03:10:15;;;;;;;480.00;380.33;;;;;;;11.92;92.69;98425.94;5027159;28;20029;-62
2021/05/25 03:12:41;;;;;;;479.70;383.27;;;;;;;11.88;92.43;98435.47;5026036;28;20030;-62
2021/05/25 03:15:15;;;;;;;479.50;381.80;;;;;;;11.94;92.62;98432.72;5030060;28;20061;-62
2021/05/25 03:17:41;;;;;;;476.95;373.30;;;;;;;11.85;92.76;98441.50;5028007;28;20026;-62
2021/05/25 03:20:09;;;;;;;483.90;385.47;;;;;;;11.87;92.70;98444.88;5031189;28;20041;-62
2021/05/25 03:22:35;;;;;;;486.07;386.43;;;;;;;11.90;92.73;98441.38;5030336;28;20048;-62
2021/05/25 03:25:01;;;;;;;478.07;378.60;;;;;;;11.89;92.82;98445.69;5028270;28;20041;-63
2021/05/25 03:27:26;;;;;;;477.13;378.63;;;;;;;11.90;92.75;98447.38;5028297;28;20025;-62
2021/05/25 03:29:52;;;;;;;476.87;376.53;;;;;;;11.95;92.53;98452.38;5029844;28;20034;-62
2021/05/25 03:32:18;;;;;;;472.50;373.70;;;;;;;11.98;92.12;98442.00;5029405;28;20136;-62
2021/05/25 03:34:43;;;;;;;477.07;378.73;;;;;;;12.03;91.99;98442.72;5034664;28;20034;-62
2021/05/25 03:37:09;;;;;;;473.47;375.63;;;;;;;12.08;90.98;98448.59;5029678;28;20490;-62
2021/05/25 03:39:35;;;;;;;481.10;381.43;;;;;;;12.09;90.28;98449.44;5027043;28;20260;-62
2021/05/25 03:42:00;;;;;;;477.87;382.53;;;;;;;12.13;89.45;98451.03;5027585;28;20033;-62
2021/05/25 03:44:26;;;;;;;478.77;385.20;;;;;;;12.23;89.33;98452.44;5028436;28;20083;-62
2021/05/25 03:46:53;;;;;;;475.60;377.37;;;;;;;12.31;87.93;98451.34;5028026;28;20355;-62
2021/05/25 03:49:18;;;;;;;476.30;376.40;;;;;;;12.34;86.60;98451.28;5031156;28;20050;-62
2021/05/25 03:51:44;;;;;;;477.47;382.73;;;;;;;12.36;85.60;98459.75;5018139;28;20025;-62
2021/05/25 03:54:23;;;;;;;474.57;380.03;;;;;;;12.40;86.01;98457.94;5030486;28;20022;-62
2021/05/25 03:59:14;;;;;;;479.87;383.67;;;;;;;12.37;86.92;98465.75;5032093;28;20109;-62
2021/05/25 04:01:39;;;;;;;483.03;387.03;;;;;;;12.37;86.08;98468.31;5026388;28;20030;-62
2021/05/25 04:04:05;;;;;;;473.87;377.87;;;;;;;12.35;86.51;98462.38;5031005;28;20122;-62
2021/05/25 04:06:30;;;;;;;477.47;386.17;;;;;;;12.39;86.27;98463.97;5025252;28;20036;-62
2021/05/25 04:08:56;;;;;;;472.20;379.33;;;;;;;12.39;87.00;98465.72;5027677;28;20661;-62
2021/05/25 04:11:21;;;;;;;476.83;387.47;;;;;;;12.32;87.47;98455.59;5028230;28;20504;-62
2021/05/25 04:13:46;;;;;;;474.23;376.67;;;;;;;12.40;87.60;98457.94;5028777;28;20060;-62
2021/05/25 04:16:13;;;;;;;471.40;373.40;;;;;;;12.46;88.00;98451.78;5026723;28;20040;-62
2021/05/25 04:18:41;;;;;;;467.67;364.73;;;;;;;12.48;87.86;98452.56;5031646;28;20037;-62
2021/05/25 04:21:07;;;;;;;473.13;367.40;;;;;;;12.50;87.73;98461.09;5028473;28;20064;-62
2021/05/25 04:23:33;;;;;;;471.63;380.33;;;;;;;12.47;87.63;98467.19;5028237;28;20025;-62
2021/05/25 04:25:58;;;;;;;469.63;381.77;;;;;;;12.55;87.13;98454.94;5027562;28;20102;-62
2021/05/25 04:28:24;;;;;;;466.00;364.00;;;;;;;12.53;86.19;98456.69;5026513;28;20040;-62
2021/05/25 04:30:49;;;;;;;468.87;367.70;;;;;;;12.59;82.97;98460.81;5021154;28;20037;-62
2021/05/25 04:33:15;;;;;;;468.00;365.33;;;;;;;12.65;80.66;98455.47;5029200;28;20425;-62
2021/05/25 04:35:40;;;;;;;465.73;359.70;;;;;;;12.76;79.01;98464.59;5027701;28;20398;-62
2021/05/25 04:38:06;;;;;;;461.60;355.87;;;;;;;12.86;77.23;98457.41;5028121;28;20082;-62
2021/05/25 04:40:33;;;;;;;468.67;367.60;;;;;;;12.87;76.84;98451.38;5029717;28;20041;-62
2021/05/25 04:43:00;;;;;;;465.23;369.03;;;;;;;12.85;75.54;98458.31;5027735;28;20423;-62
2021/05/25 04:45:26;;;;;;;464.73;359.57;;;;;;;12.82;76.24;98468.69;5027624;28;20034;-62
2021/05/25 04:47:52;;;;;;;461.60;354.30;;;;;;;12.85;76.90;98470.34;5027653;28;20044;-62
2021/05/25 04:50:18;;;;;;;463.47;350.47;;;;;;;12.81;75.13;98472.97;5028184;28;20057;-64
2021/05/25 04:52:44;;;;;;;465.37;359.53;;;;;;;12.87;75.28;98478.84;5029662;28;20072;-63
2021/05/25 04:55:13;;;;;;;458.53;341.20;;;;;;;12.91;75.26;98488.97;5030708;28;20041;-64
2021/05/25 04:57:38;;;;;;;464.90;362.80;;;;;;;12.82;74.35;98487.53;5025172;28;20065;-63
2021/05/25 05:00:10;;;;;;;464.33;354.13;;;;;;;12.88;75.23;98494.22;5028443;28;20038;-61
2021/05/25 05:02:36;;;;;;;458.80;346.67;;;;;;;12.79;75.74;98487.63;5029446;28;20080;-62
2021/05/25 05:05:01;;;;;;;463.73;355.23;;;;;;;12.75;75.40;98498.06;5026780;28;20398;-62
2021/05/25 05:07:27;;;;;;;463.03;338.07;;;;;;;12.75;75.22;98508.34;5024946;28;20055;-62
2021/05/25 05:09:52;;;;;;;465.10;353.93;;;;;;;12.67;75.54;98497.44;5025442;28;20485;-62
2021/05/25 05:12:18;;;;;;;453.87;335.73;;;;;;;12.76;73.77;98500.59;5027420;28;20057;-61
2021/05/25 05:14:43;;;;;;;458.77;331.97;;;;;;;12.75;74.33;98516.91;5030526;28;20284;-61
2021/05/25 05:17:09;;;;;;;451.43;319.73;;;;;;;12.77;73.67;98514.31;5024278;28;20724;-61
2021/05/25 05:19:34;;;;;;;455.97;337.67;;;;;;;12.76;73.96;98516.03;5030051;28;20036;-62
2021/05/25 05:22:00;;;;;;;455.77;346.20;;;;;;;12.79;74.41;98530.53;5030420;28;20037;-63
2021/05/25 05:24:25;;;;;;;454.73;334.90;;;;;;;12.86;73.88;98541.50;5030078;28;20276;-62
2021/05/25 05:26:51;;;;;;;453.27;342.27;;;;;;;12.97;72.98;98529.13;5031808;28;20267;-62
2021/05/25 05:29:16;;;;;;;451.30;341.07;;;;;;;12.95;72.61;98541.19;5029561;28;20037;-62
2021/05/25 05:31:42;;;;;;;453.33;344.87;;;;;;;13.01;72.16;98551.31;5028604;28;20051;-61
2021/05/25 05:34:07;;;;;;;451.57;341.80;;;;;;;12.98;71.57;98548.84;5032772;28;20056;-62
2021/05/25 05:36:33;;;;;;;451.17;340.20;;;;;;;13.10;71.59;98556.19;5031739;28;20034;-62
2021/05/25 05:38:58;;;;;;;448.67;337.03;;;;;;;13.01;71.45;98559.88;5030392;28;20539;-61
2021/05/25 05:41:23;;;;;;;449.10;341.43;;;;;;;13.06;70.94;98565.75;5029147;28;20060;-62
2021/05/25 05:43:49;;;;;;;452.57;353.93;;;;;;;13.02;69.52;98574.44;5035250;28;20028;-61
2021/05/25 05:46:16;;;;;;;463.47;379.90;;;;;;;13.06;67.91;98583.75;5028587;28;20040;-61
2021/05/25 05:48:41;;;;;;;448.23;355.17;;;;;;;12.93;64.59;98594.44;5029843;28;20084;-61
2021/05/25 05:51:07;;;;;;;448.93;340.50;;;;;;;12.82;63.59;98595.59;5030421;28;20301;-62
2021/05/25 05:53:33;;;;;;;448.63;332.40;;;;;;;12.74;59.87;98623.25;5030890;28;20030;-62
2021/05/25 05:55:58;;;;;;;447.73;328.67;;;;;;;12.66;60.10;98609.78;5027806;28;20127;-61
2021/05/25 05:58:23;;;;;;;451.17;328.73;;;;;;;12.60;59.13;98588.53;5034142;28;20045;-62
2021/05/25 06:00:49;;;;;;;446.20;323.23;;;;;;;12.58;58.89;98611.72;5030568;28;20067;-63
2021/05/25 06:03:14;;;;;;;446.00;323.50;;;;;;;12.63;58.09;98625.31;5028313;28;20318;-62
2021/05/25 06:05:40;;;;;;;443.97;322.13;;;;;;;12.67;57.90;98634.63;5032021;28;20124;-63
2021/05/25 06:08:07;;;;;;;442.87;318.63;;;;;;;12.66;56.54;98638.06;5032956;28;20033;-63
2021/05/25 06:10:35;;;;;;;443.90;315.50;;;;;;;12.64;57.27;98649.28;5028054;28;20056;-63
2021/05/25 06:13:01;;;;;;;450.33;332.53;;;;;;;12.66;56.39;98656.06;5030310;28;20312;-62
2021/05/25 06:15:26;;;;;;;449.43;326.87;;;;;;;12.60;56.53;98657.97;5018615;28;20276;-62
2021/05/25 06:17:52;;;;;;;448.07;329.43;;;;;;;12.58;56.54;98662.31;5030739;28;20061;-62
2021/05/25 06:20:18;;;;;;;450.67;331.47;;;;;;;12.63;57.06;98663.03;5027717;28;20102;-62
2021/05/25 06:22:44;;;;;;;449.47;315.77;;;;;;;12.70;57.43;98677.41;5032066;28;20043;-62
2021/05/25 06:25:11;;;;;;;450.27;324.73;;;;;;;12.80;54.50;98672.00;5028263;28;20385;-62
2021/05/25 06:27:36;;;;;;;445.83;322.97;;;;;;;12.76;54.58;98660.09;5028048;28;20033;-62
2021/05/25 06:30:04;;;;;;;448.43;323.00;;;;;;;12.93;53.70;98677.66;5014729;28;20695;-61
2021/05/25 06:32:30;;;;;;;444.30;321.30;;;;;;;12.77;51.85;98681.53;5030096;28;20037;-62
2021/05/25 06:34:55;;;;;;;447.27;329.27;;;;;;;12.85;52.40;98666.72;5028688;28;20272;-62
2021/05/25 06:37:20;;;;;;;446.53;324.80;;;;;;;12.70;53.52;98667.97;5027861;28;20026;-62
2021/05/25 06:39:46;;;;;;;448.53;336.27;;;;;;;12.64;53.74;98685.31;5029825;28;20445;-62
2021/05/25 06:42:11;;;;;;;446.10;327.87;;;;;;;12.63;54.46;98683.59;5031137;28;20067;-63
2021/05/25 06:44:38;;;;;;;446.70;326.93;;;;;;;12.57;55.61;98694.03;5031322;28;20037;-61
2021/05/25 06:47:03;;;;;;;446.53;321.33;;;;;;;12.56;55.99;98677.78;5028207;28;20116;-61
2021/05/25 06:49:29;;;;;;;444.33;319.90;;;;;;;12.55;56.74;98691.53;5015749;28;20698;-61
2021/05/25 06:51:54;;;;;;;451.07;325.20;;;;;;;12.51;57.20;98691.66;5014319;28;20033;-61
2021/05/25 06:54:20;;;;;;;444.30;312.77;;;;;;;12.52;57.76;98711.34;5009871;28;20337;-63
2021/05/25 06:56:46;;;;;;;450.93;324.30;;;;;;;12.65;57.85;98705.81;5010008;28;20025;-63
2021/05/25 06:59:11;;;;;;;450.37;329.30;;;;;;;12.72;58.60;98724.53;5008040;28;20037;-64
2021/05/25 07:01:37;;;;;;;447.87;319.33;;;;;;;12.59;58.05;98706.00;5008820;28;20112;-63
2021/05/25 07:04:02;;;;;;;454.37;327.63;;;;;;;12.62;58.23;98705.91;5012667;28;20045;-63
2021/05/25 07:06:28;;;;;;;453.53;324.87;;;;;;;12.75;57.67;98709.84;5012386;28;20276;-63
2021/05/25 07:08:53;;;;;;;455.23;338.70;;;;;;;12.86;58.30;98701.03;5005805;28;20333;-63
2021/05/25 07:11:20;;;;;;;461.77;340.83;;;;;;;12.99;56.70;98708.34;5007298;28;20030;-62
2021/05/25 07:13:46;;;;;;;456.03;344.03;;;;;;;13.23;56.51;98702.56;5010887;28;20034;-63
2021/05/25 07:16:13;;;;;;;462.80;351.93;;;;;;;13.39;57.00;98707.25;5009217;28;20037;-62
2021/05/25 07:18:38;;;;;;;456.60;350.07;;;;;;;13.43;54.24;98676.22;5008978;28;20033;-62
2021/05/25 07:21:04;;;;;;;455.77;351.87;;;;;;;13.52;55.57;98678.53;5009781;28;20068;-62
2021/05/25 07:23:29;;;;;;;461.87;365.93;;;;;;;13.67;55.59;98693.50;5006207;28;20117;-62
2021/05/25 07:25:55;;;;;;;457.77;364.43;;;;;;;13.61;54.42;98688.56;5009478;28;20030;-63
2021/05/25 07:28:20;;;;;;;458.70;365.90;;;;;;;13.58;54.94;98691.19;5012011;28;20379;-62
2021/05/25 07:30:47;;;;;;;457.83;359.27;;;;;;;13.78;55.24;98694.91;5009394;28;20033;-62
2021/05/25 07:33:13;;;;;;;459.23;368.23;;;;;;;13.83;53.94;98706.78;5007722;28;20031;-62
2021/05/25 07:35:39;;;;;;;455.63;366.13;;;;;;;13.82;55.83;98704.25;5006381;28;20042;-62
2021/05/25 07:38:04;;;;;;;460.20;375.00;;;;;;;13.81;54.51;98718.00;5005445;28;20323;-62
2021/05/25 07:40:30;;;;;;;465.40;382.27;;;;;;;13.89;53.41;98718.63;5005023;28;20053;-61
2021/05/25 07:42:55;;;;;;;463.37;384.83;;;;;;;13.88;54.35;98715.19;5006367;28;20068;-64
2021/05/25 07:45:21;;;;;;;462.47;385.83;;;;;;;13.86;53.66;98706.69;5008606;28;20037;-62
2021/05/25 07:47:47;;;;;;;462.40;382.60;;;;;;;13.90;54.37;98726.31;5006529;28;20084;-62
2021/05/25 07:50:14;;;;;;;464.70;384.50;;;;;;;13.75;53.80;98739.66;5025129;28;20410;-64
2021/05/25 07:52:45;;;;;;;471.10;396.70;;;;;;;13.88;54.66;98743.53;5026172;28;20032;-65
2021/05/25 07:55:11;;;;;;;456.87;375.47;;;;;;;14.00;54.09;98734.63;5030854;28;20040;-64
2021/05/25 07:57:39;;;;;;;458.17;379.70;;;;;;;13.93;52.45;98736.53;5030650;28;20048;-64
2021/05/25 08:00:07;;;;;;;455.37;373.47;;;;;;;13.94;53.91;98748.53;5025888;28;20051;-63
2021/05/25 08:02:32;;;;;;;454.90;373.30;;;;;;;13.84;52.69;98743.69;5027015;28;20080;-63
2021/05/25 08:04:57;;;;;;;462.60;372.33;;;;;;;13.78;51.92;98739.56;5027487;28;20037;-63
2021/05/25 08:07:23;;;;;;;466.30;385.90;;;;;;;13.80;53.06;98740.34;5028333;28;20073;-63
2021/05/25 08:09:48;;;;;;;470.03;391.80;;;;;;;13.81;52.56;98757.50;5028947;28;20031;-63
2021/05/25 08:12:14;;;;;;;466.73;389.90;;;;;;;13.73;52.35;98744.88;5030963;28;20052;-61
2021/05/25 08:14:39;;;;;;;464.07;383.20;;;;;;;13.76;53.36;98756.81;5029865;28;20044;-61
2021/05/25 08:17:15;;;;;;;465.27;372.97;;;;;;;13.82;51.93;98737.75;5029135;28;20112;-61
2021/05/25 08:19:43;;;;;;;466.90;384.70;;;;;;;13.80;52.20;98742.09;5026797;28;20030;-61
2021/05/25 08:22:08;;;;;;;464.67;383.23;;;;;;;13.84;50.85;98748.84;5026177;28;20033;-63
2021/05/25 08:24:34;;;;;;;528.70;474.53;;;;;;;13.86;50.12;98735.03;5029427;28;20095;-61
2021/05/25 08:26:59;;;;;;;465.30;377.63;;;;;;;13.84;50.99;98746.25;5028029;28;20029;-61
2021/05/25 08:29:24;;;;;;;468.27;382.10;;;;;;;13.87;50.78;98752.19;5027129;28;20091;-62
2021/05/25 08:31:50;;;;;;;463.47;381.03;;;;;;;13.71;52.01;98751.78;5029126;28;20378;-62
2021/05/25 08:34:15;;;;;;;465.60;394.93;;;;;;;13.72;51.27;98763.78;5029496;28;20025;-61
2021/05/25 08:36:41;;;;;;;461.20;373.83;;;;;;;13.77;51.92;98761.06;5027424;28;20041;-62
2021/05/25 08:39:06;;;;;;;462.67;385.70;;;;;;;13.87;50.86;98777.13;5027268;28;20056;-62
2021/05/25 08:41:34;;;;;;;466.93;384.87;;;;;;;13.66;51.51;98773.44;5030661;28;20033;-61
2021/05/25 08:44:00;;;;;;;458.53;367.80;;;;;;;13.84;51.63;98782.34;5027792;28;20342;-61
2021/05/25 08:46:25;;;;;;;462.20;378.67;;;;;;;13.56;52.08;98802.91;5028722;28;20072;-60
2021/05/25 08:48:52;;;;;;;462.07;378.83;;;;;;;13.45;51.94;98792.91;5025695;28;20115;-61
2021/05/25 08:51:17;;;;;;;460.77;369.87;;;;;;;13.60;51.85;98789.91;5028644;28;20076;-62
2021/05/25 08:53:43;;;;;;;458.33;368.57;;;;;;;13.65;51.58;98793.19;5029827;28;20290;-62
2021/05/25 08:56:08;;;;;;;462.37;378.57;;;;;;;13.60;50.93;98795.06;5031947;28;20086;-63
2021/05/25 08:58:34;;;;;;;462.87;361.57;;;;;;;13.53;51.25;98793.56;5034282;28;20042;-61
2021/05/25 09:01:00;;;;;;;459.23;368.63;;;;;;;13.75;51.61;98788.59;5035280;28;20025;-61
2021/05/25 09:03:25;;;;;;;457.53;371.40;;;;;;;13.82;49.26;98797.88;5026610;28;20033;-61
2021/05/25 09:05:55;;;;;;;473.50;388.00;;;;;;;14.07;49.50;98795.41;5030823;28;20287;-61
2021/05/25 09:08:21;;;;;;;461.07;373.60;;;;;;;14.05;49.52;98797.16;5032469;28;20117;-62
2021/05/25 09:10:47;;;;;;;467.33;389.30;;;;;;;13.80;49.93;98791.03;5032073;28;20068;-61
2021/05/25 09:13:23;;;;;;;464.10;371.90;;;;;;;14.00;50.19;98791.31;5032228;28;20382;-61
2021/05/25 09:15:53;;;;;;;464.53;394.40;;;;;;;14.10;49.96;98797.88;5032033;28;20440;-61
2021/05/25 09:18:18;;;;;;;466.57;395.30;;;;;;;14.01;50.26;98795.56;5031383;28;20139;-62
2021/05/25 09:20:48;;;;;;;480.77;407.40;;;;;;;14.04;49.80;98805.81;5029880;28;20037;-62
2021/05/25 09:23:22;;;;;;;460.40;366.40;;;;;;;13.95;49.66;98808.66;5030864;28;20033;-63
2021/05/25 09:25:52;;;;;;;463.20;389.10;;;;;;;13.86;49.56;98824.38;5032647;28;20378;-62
2021/05/25 09:28:18;;;;;;;461.70;385.90;;;;;;;13.87;50.71;98838.97;5032517;28;20034;-61
2021/05/25 09:30:46;;;;;;;464.80;394.53;;;;;;;13.82;50.14;98845.97;5033078;28;20535;-61
2021/05/25 09:33:12;;;;;;;466.90;385.60;;;;;;;13.73;50.49;98835.06;5028496;28;20080;-62
2021/05/25 09:35:40;;;;;;;464.67;381.30;;;;;;;13.71;50.69;98841.97;5028935;28;20037;-62
2021/05/25 09:38:08;;;;;;;474.03;393.80;;;;;;;13.70;50.32;98847.19;5017787;28;20267;-62
2021/05/25 09:40:35;;;;;;;461.77;377.03;;;;;;;13.73;48.80;98847.94;5034889;28;20375;-62
2021/05/25 09:43:17;;;;;;;472.93;395.63;;;;;;;13.95;48.65;98850.75;5032442;28;20021;-62
2021/05/25 09:45:55;;;;;;;466.50;382.10;;;;;;;13.92;50.18;98850.00;5030135;28;20069;-62
2021/05/25 09:48:32;;;;;;;463.40;385.20;;;;;;;13.95;45.63;98857.63;5031439;28;20045;-62
2021/05/25 09:51:01;;;;;;;467.97;391.33;;;;;;;13.92;45.90;98863.69;5030017;28;20456;-63
2021/05/25 09:53:31;;;;;;;467.50;391.33;;;;;;;13.88;44.68;98876.72;5032337;28;20095;-62
2021/05/25 09:56:01;;;;;;;462.97;386.97;;;;;;;13.87;45.06;98852.69;5030246;28;20119;-62
2021/05/25 09:58:33;;;;;;;458.40;365.83;;;;;;;13.90;43.16;98864.66;5031726;28;20037;-62
2021/05/25 10:01:03;;;;;;;460.63;381.30;;;;;;;13.94;43.19;98858.50;5031073;28;20029;-62
2021/05/25 10:03:30;;;;;;;466.37;377.80;;;;;;;14.05;42.33;98864.19;5029202;28;20056;-62
2021/05/25 10:06:00;;;;;;;468.10;379.57;;;;;;;14.11;42.66;98870.03;5030779;28;20032;-62
2021/05/25 10:08:26;;;;;;;468.10;391.37;;;;;;;14.19;43.60;98864.63;5026465;28;20037;-61
2021/05/25 10:10:56;;;;;;;474.73;402.10;;;;;;;14.13;43.73;98862.25;5027998;28;20025;-62
2021/05/25 10:13:24;;;;;;;471.30;391.93;;;;;;;14.20;43.62;98861.19;5025975;28;20051;-62
2021/05/25 10:15:51;;;;;;;484.37;419.63;;;;;;;14.10;43.11;98864.91;5029511;28;20063;-61
2021/05/25 10:20:59;;;;;;;481.07;409.07;;;;;;;14.34;41.98;98877.06;5029607;28;20124;-62
2021/05/25 10:23:28;;;;;;;478.10;423.43;;;;;;;14.41;43.41;98872.59;5031794;28;20137;-62
2021/05/25 10:25:54;;;;;;;478.63;412.10;;;;;;;14.23;41.54;98865.38;5030145;28;20045;-62
2021/05/25 10:28:20;;;;;;;480.27;418.67;;;;;;;14.39;41.81;98870.06;5029295;28;20021;-62
2021/05/25 10:30:51;;;;;;;473.13;401.23;;;;;;;14.32;40.93;98884.00;5019828;28;20043;-62
2021/05/25 10:33:16;;;;;;;470.40;401.23;;;;;;;14.42;41.29;98882.91;5029807;28;20386;-62
2021/05/25 10:35:49;;;;;;;474.93;409.77;;;;;;;14.64;41.32;98857.25;5029060;28;20040;-62
2021/05/25 10:38:15;;;;;;;474.20;421.87;;;;;;;14.74;42.75;98868.13;5029199;28;20130;-62
2021/05/25 10:40:44;;;;;;;480.37;427.67;;;;;;;14.78;41.84;98859.38;5027890;28;20462;-62
2021/05/25 10:43:38;;;;;;;471.20;418.07;;;;;;;14.76;42.19;98856.03;5010174;28;20319;-62
2021/05/25 10:46:09;;;;;;;472.83;414.93;;;;;;;14.49;41.55;98853.44;5016856;28;20128;-62
2021/05/25 10:49:08;;;;;;;471.20;416.47;;;;;;;14.40;41.53;98856.28;5028584;28;20049;-62
2021/05/25 10:51:50;;;;;;;471.53;410.80;;;;;;;14.57;40.95;98859.19;5030644;28;20491;-62
2021/05/25 10:54:22;;;;;;;471.83;409.10;;;;;;;14.49;42.02;98856.00;5034552;28;20052;-62
2021/05/25 10:56:48;;;;;;;473.37;414.10;;;;;;;14.61;41.90;98858.19;5027673;28;20056;-62
2021/05/25 10:59:16;;;;;;;473.97;413.93;;;;;;;14.18;40.27;98856.06;5029266;28;20282;-62
2021/05/25 11:01:41;;;;;;;468.73;401.03;;;;;;;13.80;41.59;98863.22;5028721;28;20033;-62
2021/05/25 11:04:11;;;;;;;470.67;409.83;;;;;;;13.75;42.01;98868.50;5020882;28;20104;-62
2021/05/25 11:06:37;;;;;;;469.00;394.67;;;;;;;13.76;42.99;98875.34;5031273;28;20037;-62